This is the latest recevied weather packets stored in our database for station/object N6WDO. If no packets are shown the sender has not sent any weather packets the latest 10 day(s).
| Time | Temp. | Humidity | Pressure | Rain* | Wind** | Luminosity | Snow |
|---|---|---|---|---|---|---|---|
| 1777792066 | 14.44° C | 67% | 1011.7 hPa | 0 mm | - | 0 W/m² | - |
| 1777791764 | 14.44° C | 66% | 1012 hPa | 0 mm | - | 0 W/m² | - |
| 1777791462 | 13.89° C | 70% | 1011.9 hPa | 0 mm | - | 0 W/m² | - |
| 1777791159 | 13.89° C | 73% | 1011.8 hPa | 0 mm | - | 0 W/m² | - |
| 1777790856 | 13.89° C | 73% | 1011.9 hPa | 0 mm | - | 0 W/m² | - |
| 1777790553 | 13.89° C | 73% | 1012.2 hPa | 0 mm | - | 0 W/m² | - |
| 1777790250 | 14.44° C | 69% | 1012 hPa | 0 mm | - | 0 W/m² | - |
| 1777789944 | 14.44° C | 71% | 1012.1 hPa | 0 mm | - | 0 W/m² | - |
| 1777789641 | 14.44° C | 72% | 1012.1 hPa | 0 mm | - | 0 W/m² | - |
| 1777789340 | 15° C | 72% | 1012.2 hPa | 0 mm | - | 0 W/m² | - |
| 1777789036 | 15° C | 67% | 1012.1 hPa | 0 mm | - | 0 W/m² | - |
| 1777788734 | 15.56° C | 66% | 1012.2 hPa | 0 mm | - | 0 W/m² | - |
| 1777788429 | 14.44° C | 66% | 1012.4 hPa | 0 mm | - | 0 W/m² | - |
| 1777788123 | 15° C | 69% | 1012.2 hPa | 0 mm | - | 0 W/m² | - |
| 1777787819 | 15° C | 67% | 1012.1 hPa | 0 mm | - | 0 W/m² | - |
| 1777787515 | 15° C | 66% | 1012.2 hPa | 0 mm | - | 0 W/m² | - |
| 1777787210 | 15° C | 67% | 1012.1 hPa | 0 mm | - | 0 W/m² | - |
| 1777786907 | 15° C | 68% | 1012.1 hPa | 0 mm | - | 0 W/m² | - |
| 1777786605 | 15° C | 67% | 1012.2 hPa | 0 mm | - | 0 W/m² | - |
| 1777786304 | 14.44° C | 69% | 1012.5 hPa | 0 mm | - | 0 W/m² | - |
| 1777786000 | 14.44° C | 72% | 1012.3 hPa | 0 mm | - | 0 W/m² | - |
| 1777785696 | 14.44° C | 74% | 1012.3 hPa | 0 mm | - | 0 W/m² | - |
| 1777785391 | 15° C | 71% | 1012.4 hPa | 0 mm | - | 0 W/m² | - |
| 1777785090 | 16.11° C | 64% | 1012.1 hPa | 0 mm | - | 0 W/m² | - |
| 1777784786 | 16.67° C | 62% | 1012.2 hPa | 0 mm | - | 0 W/m² | - |
* Rain latest hour (hover to see other rain measurements)
** Current wind speed in m/s (hover to see current wind gust speed)